Time;durP1;ratioP1;P1;durP2;ratioP2;P2;SDS_P1;SDS_P2;PMS_P1;PMS_P2;Temp;Humidity;BMP_temperature;BMP_pressure;BME280_temperature;BME280_humidity;BME280_pressure;Samples;Min_cycle;Max_cycle;Signal;HPM_P1;HPM_P2
2024/03/15 00:00:20;;;;;;;;;;;;;;;7.22;70.78;96427.53;7395169;19;1862;-73
2024/03/15 00:02:49;;;;;;;;;;;;;;;7.19;71.11;96420.63;7394801;19;1001;-71
2024/03/15 00:05:19;;;;;;;;;;;;;;;7.15;70.87;96425.09;7394485;19;1206;-65
2024/03/15 00:07:47;;;;;;;;;;;;;;;7.14;71.18;96419.94;7394965;19;1059;-69
2024/03/15 00:10:16;;;;;;;;;;;;;;;7.11;71.44;96415.66;7393738;19;1105;-73
2024/03/15 00:12:47;;;;;;;;;;;;;;;7.10;72.12;96411.34;7394416;19;1128;-67
2024/03/15 00:15:16;;;;;;;;;;;;;;;7.15;72.70;96411.22;7407129;19;1080;-66
2024/03/15 00:17:45;;;;;;;;;;;;;;;7.16;72.88;96410.31;7408104;19;1865;-70
2024/03/15 00:20:13;;;;;;;;;;;;;;;7.18;72.74;96405.94;7408444;19;1044;-65
2024/03/15 00:22:42;;;;;;;;;;;;;;;7.20;72.98;96405.00;7408902;19;1191;-70
2024/03/15 00:25:13;;;;;;;;;;;;;;;7.18;72.75;96400.72;7408291;19;1092;-70
2024/03/15 00:27:42;;;;;;;;;;;;;;;7.18;72.98;96399.00;7408769;19;977;-70
2024/03/15 00:30:13;;;;;;;;;;;;;;;7.17;73.33;96404.25;7408483;19;1779;-67
2024/03/15 00:32:42;;;;;;;;;;;;;;;7.13;73.28;96400.84;7408105;19;1037;-66
2024/03/15 00:35:12;;;;;;;;;;;;;;;7.12;73.19;96399.16;7408057;19;1061;-67
2024/03/15 00:37:40;;;;;;;;;;;;;;;7.13;73.19;96395.66;7407635;19;1857;-72
2024/03/15 00:40:11;;;;;;;;;;;;;;;7.16;73.23;96400.78;7408239;19;1827;-70
2024/03/15 00:42:40;;;;;;;;;;;;;;;7.17;73.19;96404.25;7407875;19;1096;-66
2024/03/15 00:45:09;;;;;;;;;;;;;;;7.15;73.07;96398.22;7408212;19;1965;-71
2024/03/15 00:47:40;;;;;;;;;;;;;;;7.13;72.83;96398.25;7407791;19;1040;-72
2024/03/15 00:50:09;;;;;;;;;;;;;;;7.14;72.80;96399.97;7407659;19;1057;-71
2024/03/15 00:52:38;;;;;;;;;;;;;;;7.14;73.50;96393.91;7408117;19;1045;-71
2024/03/15 00:55:08;;;;;;;;;;;;;;;7.18;73.70;96395.53;7407866;19;1896;-65
2024/03/15 00:57:37;;;;;;;;;;;;;;;7.20;73.04;96393.75;7407328;19;1852;-67
2024/03/15 01:00:07;;;;;;;;;;;;;;;7.21;72.94;96390.25;7407864;19;964;-70
2024/03/15 01:02:35;;;;;;;;;;;;;;;7.17;73.17;96388.63;7407362;19;1124;-72
2024/03/15 01:05:08;;;;;;;;;;;;;;;7.18;73.08;96387.72;7407264;19;1187;-66
2024/03/15 01:07:36;;;;;;;;;;;;;;;7.16;73.39;96385.16;7407208;19;1222;-67
2024/03/15 01:10:05;;;;;;;;;;;;;;;7.11;73.27;96389.66;7406559;19;1447;-69
2024/03/15 01:12:34;;;;;;;;;;;;;;;7.01;73.52;96386.41;7407107;19;1109;-65
2024/03/15 01:15:02;;;;;;;;;;;;;;;7.02;73.71;96390.75;7407481;19;953;-70
2024/03/15 01:17:30;;;;;;;;;;;;;;;7.06;73.86;96388.91;7406529;19;1838;-67
2024/03/15 01:19:59;;;;;;;;;;;;;;;7.04;74.14;96385.47;7406984;19;1057;-67
2024/03/15 01:22:32;;;;;;;;;;;;;;;6.95;73.82;96379.63;7407311;19;1813;-67
2024/03/15 01:25:00;;;;;;;;;;;;;;;6.83;73.70;96385.13;7404560;19;1037;-71
2024/03/15 01:27:29;;;;;;;;;;;;;;;6.67;73.86;96393.34;7399592;19;1926;-70
2024/03/15 01:29:57;;;;;;;;;;;;;;;6.66;74.15;96393.38;7399708;19;1045;-70
2024/03/15 01:32:25;;;;;;;;;;;;;;;6.68;74.24;96383.78;7399805;19;1800;-71
2024/03/15 01:34:54;;;;;;;;;;;;;;;6.65;74.75;96382.13;7399444;19;1042;-70
2024/03/15 01:37:23;;;;;;;;;;;;;;;6.69;74.77;96386.34;7399071;19;1869;-67
2024/03/15 01:39:54;;;;;;;;;;;;;;;6.78;74.50;96384.41;7400046;19;971;-73
2024/03/15 01:42:22;;;;;;;;;;;;;;;6.89;74.90;96384.16;7399287;19;958;-70
2024/03/15 01:44:55;;;;;;;;;;;;;;;6.93;74.97;96391.81;7399424;19;1934;-67
2024/03/15 01:47:25;;;;;;;;;;;;;;;6.97;74.75;96384.78;7399052;19;922;-66
2024/03/15 01:49:54;;;;;;;;;;;;;;;6.98;74.75;96389.09;7398910;19;1143;-69
2024/03/15 01:52:24;;;;;;;;;;;;;;;7.02;74.97;96388.16;7398876;19;1242;-71
2024/03/15 01:54:55;;;;;;;;;;;;;;;7.06;74.37;96391.50;7398826;19;1033;-72
2024/03/15 01:57:24;;;;;;;;;;;;;;;7.09;74.36;96386.22;7398538;19;1838;-67
2024/03/15 01:59:52;;;;;;;;;;;;;;;7.12;74.71;96388.75;7398643;19;1244;-70
2024/03/15 02:02:22;;;;;;;;;;;;;;;7.15;74.47;96396.47;7398882;19;2001;-68
2024/03/15 02:04:56;;;;;;;;;;;;;;;7.15;74.29;96393.88;7398452;19;1049;-69
2024/03/15 02:07:27;;;;;;;;;;;;;;;7.15;74.18;96383.47;7398342;19;1128;-73
2024/03/15 02:09:58;;;;;;;;;;;;;;;7.16;74.16;96387.75;7398208;19;1061;-70
2024/03/15 02:12:28;;;;;;;;;;;;;;;7.11;73.64;96383.59;7398279;19;1028;-65
2024/03/15 02:14:56;;;;;;;;;;;;;;;7.05;73.44;96390.63;7398154;19;1139;-70
2024/03/15 02:17:26;;;;;;;;;;;;;;;7.02;74.29;96387.28;7398413;19;1853;-69
2024/03/15 02:19:55;;;;;;;;;;;;;;;7.01;74.37;96382.97;7398016;19;1092;-69
2024/03/15 02:22:26;;;;;;;;;;;;;;;6.96;74.50;96390.91;7397911;19;1120;-66
2024/03/15 02:24:54;;;;;;;;;;;;;;;6.97;74.30;96384.78;7397773;19;1131;-71
2024/03/15 02:27:24;;;;;;;;;;;;;;;7.01;74.45;96390.78;7397745;19;907;-69
2024/03/15 02:29:53;;;;;;;;;;;;;;;7.00;74.94;96394.25;7398050;19;1229;-67
2024/03/15 02:32:22;;;;;;;;;;;;;;;7.03;75.18;96389.84;7397993;19;1000;-69
2024/03/15 02:34:51;;;;;;;;;;;;;;;7.08;75.03;96393.16;7397482;19;1021;-68
2024/03/15 02:37:20;;;;;;;;;;;;;;;7.11;75.00;96394.84;7397103;19;1096;-71
2024/03/15 02:39:51;;;;;;;;;;;;;;;7.11;75.23;96394.84;7395537;19;1955;-70
2024/03/15 02:42:20;;;;;;;;;;;;;;;7.15;74.71;96404.28;7397317;19;1049;-69
2024/03/15 02:44:48;;;;;;;;;;;;;;;7.15;74.67;96398.22;7397390;19;1928;-64
2024/03/15 02:47:17;;;;;;;;;;;;;;;7.13;74.16;96400.00;7397101;19;1073;-70
2024/03/15 02:49:45;;;;;;;;;;;;;;;7.13;74.59;96398.25;7397311;19;1845;-68
2024/03/15 02:52:14;;;;;;;;;;;;;;;7.15;74.71;96396.47;7397671;19;1781;-67
2024/03/15 02:54:42;;;;;;;;;;;;;;;7.15;74.42;96393.00;7396833;19;1081;-73
2024/03/15 02:57:13;;;;;;;;;;;;;;;7.15;74.73;96393.00;7397242;19;1928;-70
2024/03/15 02:59:42;;;;;;;;;;;;;;;7.18;74.70;96390.31;7394958;19;1846;-73
2024/03/15 03:02:14;;;;;;;;;;;;;;;7.21;74.95;96392.84;7396849;19;1268;-66
2024/03/15 03:04:42;;;;;;;;;;;;;;;7.22;74.85;96396.31;7396474;19;1041;-69
2024/03/15 03:07:11;;;;;;;;;;;;;;;7.23;74.54;96392.81;7396938;19;1922;-70
2024/03/15 03:09:39;;;;;;;;;;;;;;;7.21;74.64;96390.25;7396851;19;1033;-67
2024/03/15 03:12:08;;;;;;;;;;;;;;;7.17;74.53;96392.06;7397039;19;1767;-69
2024/03/15 03:14:39;;;;;;;;;;;;;;;7.17;74.27;96396.44;7396525;19;1900;-70
2024/03/15 03:17:07;;;;;;;;;;;;;;;7.16;74.53;96392.09;7396238;19;1025;-69
2024/03/15 03:19:36;;;;;;;;;;;;;;;7.12;74.56;96391.34;7394866;19;1902;-65
2024/03/15 03:22:05;;;;;;;;;;;;;;;7.17;74.56;96391.22;7396303;19;1702;-65
2024/03/15 03:24:34;;;;;;;;;;;;;;;7.20;74.18;96396.34;7396350;19;1064;-64
2024/03/15 03:27:02;;;;;;;;;;;;;;;7.17;73.94;96396.44;7395787;19;996;-71
2024/03/15 03:29:31;;;;;;;;;;;;;;;7.18;73.36;96395.53;7395961;19;1925;-68
2024/03/15 03:32:02;;;;;;;;;;;;;;;7.19;73.56;96398.09;7395970;19;1003;-71
2024/03/15 03:34:30;;;;;;;;;;;;;;;7.21;74.21;96405.84;7395543;19;1112;-68
2024/03/15 03:36:59;;;;;;;;;;;;;;;7.19;74.45;96403.28;7395579;19;2008;-68
2024/03/15 03:39:27;;;;;;;;;;;;;;;7.17;74.49;96402.47;7394976;19;1842;-68
2024/03/15 03:41:56;;;;;;;;;;;;;;;7.15;74.58;96401.66;7395494;19;981;-69
2024/03/15 03:44:26;;;;;;;;;;;;;;;7.15;74.82;96406.88;7395242;19;1076;-70
2024/03/15 03:46:55;;;;;;;;;;;;;;;7.17;74.47;96404.25;7395653;19;1006;-70
2024/03/15 03:49:26;;;;;;;;;;;;;;;7.18;74.48;96405.94;7394030;19;1807;-66
2024/03/15 03:51:56;;;;;;;;;;;;;;;7.16;74.23;96405.09;7395093;19;1012;-67
2024/03/15 03:54:24;;;;;;;;;;;;;;;7.17;74.61;96406.84;7394908;19;1298;-70
2024/03/15 03:56:53;;;;;;;;;;;;;;;7.11;74.31;96399.19;7395369;19;956;-70
2024/03/15 03:59:21;;;;;;;;;;;;;;;7.11;74.40;96407.00;7394025;19;1930;-71
2024/03/15 04:01:51;;;;;;;;;;;;;;;7.08;74.25;96400.13;7394762;19;1087;-68
2024/03/15 04:04:21;;;;;;;;;;;;;;;7.06;74.13;96401.91;7395015;19;1803;-73
2024/03/15 04:06:52;;;;;;;;;;;;;;;7.00;74.23;96402.94;7394700;19;1021;-68
2024/03/15 04:09:22;;;;;;;;;;;;;;;6.99;74.31;96403.84;7394499;19;1056;-68
2024/03/15 04:11:50;;;;;;;;;;;;;;;7.02;74.57;96405.50;7393120;19;1049;-70
2024/03/15 04:14:20;;;;;;;;;;;;;;;7.03;74.45;96401.97;7394869;19;1766;-70
2024/03/15 04:16:48;;;;;;;;;;;;;;;7.04;73.97;96403.69;7394989;19;1045;-73
2024/03/15 04:19:16;;;;;;;;;;;;;;;6.99;74.16;96403.84;7393701;19;1833;-70
2024/03/15 04:21:45;;;;;;;;;;;;;;;6.96;74.09;96406.50;7394613;19;1819;-66
2024/03/15 04:24:16;;;;;;;;;;;;;;;6.91;73.34;96403.16;7394449;19;1896;-69
2024/03/15 04:26:45;;;;;;;;;;;;;;;6.70;73.33;96403.66;7394169;19;1065;-70
2024/03/15 04:29:14;;;;;;;;;;;;;;;6.64;73.77;96410.75;7394023;19;1029;-68
2024/03/15 04:31:42;;;;;;;;;;;;;;;6.56;73.71;96410.94;7394319;19;1894;-70
2024/03/15 04:34:11;;;;;;;;;;;;;;;6.50;73.86;96409.34;7394278;19;1028;-70
2024/03/15 04:36:39;;;;;;;;;;;;;;;6.45;73.77;96400.81;7394227;19;2094;-68
2024/03/15 04:39:08;;;;;;;;;;;;;;;6.36;73.88;96411.41;7393305;19;1845;-71
2024/03/15 04:41:39;;;;;;;;;;;;;;;6.27;73.79;96407.28;7394181;19;1025;-70
2024/03/15 04:44:08;;;;;;;;;;;;;;;6.22;74.39;96417.78;7393668;19;1955;-71
2024/03/15 04:46:36;;;;;;;;;;;;;;;6.23;74.17;96422.06;7394333;19;954;-71
2024/03/15 04:49:07;;;;;;;;;;;;;;;6.27;74.28;96421.13;7393817;19;1791;-70
2024/03/15 04:51:35;;;;;;;;;;;;;;;6.30;74.15;96428.84;7393485;19;1045;-67
2024/03/15 04:54:04;;;;;;;;;;;;;;;6.35;73.81;96435.69;7393352;19;1155;-72
2024/03/15 04:56:33;;;;;;;;;;;;;;;6.38;73.94;96436.47;7393276;19;1044;-69
2024/03/15 04:59:04;;;;;;;;;;;;;;;6.37;73.39;96432.16;7392982;19;1835;-71
2024/03/15 05:01:33;;;;;;;;;;;;;;;6.26;73.32;96429.81;7397200;19;1020;-66
2024/03/15 05:04:01;;;;;;;;;;;;;;;6.25;73.29;96435.03;7400586;19;1181;-67
2024/03/15 05:06:30;;;;;;;;;;;;;;;6.21;74.02;96439.47;7401001;19;1037;-71
2024/03/15 05:08:59;;;;;;;;;;;;;;;6.17;73.89;96436.06;7400407;19;1048;-68
2024/03/15 05:11:27;;;;;;;;;;;;;;;6.25;74.24;96440.22;7398681;19;1918;-69
2024/03/15 05:13:59;;;;;;;;;;;;;;;6.35;74.36;96448.69;7397495;19;1105;-70
2024/03/15 05:16:30;;;;;;;;;;;;;;;6.42;73.86;96445.06;7400095;19;1071;-68
2024/03/15 05:18:59;;;;;;;;;;;;;;;6.47;73.58;96445.78;7399228;19;1839;-67
2024/03/15 05:21:27;;;;;;;;;;;;;;;6.53;72.78;96447.41;7400481;19;1164;-67
2024/03/15 05:23:57;;;;;;;;;;;;;;;6.51;72.74;96447.44;7400262;19;2114;-70
2024/03/15 05:26:26;;;;;;;;;;;;;;;6.53;73.06;96460.41;7399921;19;1116;-70
2024/03/15 05:28:55;;;;;;;;;;;;;;;6.56;72.61;96450.78;7400356;19;992;-72
2024/03/15 05:31:26;;;;;;;;;;;;;;;6.62;72.31;96454.13;7399771;19;1108;-64
2024/03/15 05:33:57;;;;;;;;;;;;;;;6.65;72.58;96454.06;7399675;19;1010;-63
2024/03/15 05:36:27;;;;;;;;;;;;;;;6.73;72.87;96459.94;7399521;19;1120;-67
2024/03/15 05:38:55;;;;;;;;;;;;;;;6.77;73.42;96456.34;7398982;19;1846;-64
2024/03/15 05:41:24;;;;;;;;;;;;;;;6.87;73.02;96466.53;7399419;19;1127;-68
2024/03/15 05:43:52;;;;;;;;;;;;;;;6.99;72.75;96471.44;7399669;19;968;-69
2024/03/15 05:46:21;;;;;;;;;;;;;;;7.07;72.05;96466.91;7399284;19;1001;-66
2024/03/15 05:48:50;;;;;;;;;;;;;;;7.14;72.42;96465.00;7399439;19;1053;-67
2024/03/15 05:51:21;;;;;;;;;;;;;;;7.22;72.56;96469.16;7399698;19;969;-67
2024/03/15 05:53:50;;;;;;;;;;;;;;;7.29;71.22;96466.34;7398979;19;1095;-68
2024/03/15 05:56:19;;;;;;;;;;;;;;;7.36;71.61;96468.78;7398960;19;1228;-72
2024/03/15 05:58:47;;;;;;;;;;;;;;;7.43;71.26;96468.59;7398939;19;1845;-70
2024/03/15 06:01:16;;;;;;;;;;;;;;;7.50;71.13;96473.63;7399044;19;1836;-70
2024/03/15 06:03:44;;;;;;;;;;;;;;;7.58;70.46;96477.75;7398630;19;1037;-67
2024/03/15 06:06:13;;;;;;;;;;;;;;;7.66;70.04;96477.53;7398851;19;1804;-72
2024/03/15 06:08:45;;;;;;;;;;;;;;;7.71;69.76;96482.63;7398583;19;1142;-67
2024/03/15 06:11:13;;;;;;;;;;;;;;;7.78;70.28;96476.34;7395932;19;1147;-70
2024/03/15 06:13:42;;;;;;;;;;;;;;;7.91;70.44;96475.97;7398329;19;1005;-67
2024/03/15 06:16:11;;;;;;;;;;;;;;;8.04;70.89;96479.09;7398738;19;1039;-73
2024/03/15 06:18:39;;;;;;;;;;;;;;;8.16;70.48;96486.53;7398137;19;1049;-69
2024/03/15 06:21:09;;;;;;;;;;;;;;;8.23;69.00;96489.84;7396250;19;1845;-69
2024/03/15 06:23:38;;;;;;;;;;;;;;;8.31;68.20;96489.63;7398394;19;1038;-69
2024/03/15 06:26:09;;;;;;;;;;;;;;;8.29;67.34;96489.66;7398277;19;1021;-67
2024/03/15 06:28:37;;;;;;;;;;;;;;;8.37;66.96;96483.38;7397689;19;1057;-65
2024/03/15 06:31:06;;;;;;;;;;;;;;;8.49;66.96;96479.53;7398140;19;1011;-67
2024/03/15 06:33:35;;;;;;;;;;;;;;;8.65;66.44;96492.97;7398040;19;1079;-70
2024/03/15 06:36:03;;;;;;;;;;;;;;;8.81;65.07;96489.00;7398113;19;972;-71
2024/03/15 06:38:40;;;;;;;;;;;;;;;9.00;65.00;96492.78;7397835;19;1823;-72
2024/03/15 06:41:29;;;;;;;;;;;;;;;9.08;64.22;96491.63;7395321;19;1858;-65
2024/03/15 06:44:19;;;;;;;;;;;;;;;9.12;64.22;96497.56;7397203;19;1198;-67
2024/03/15 06:47:04;;;;;;;;;;;;;;;9.18;64.43;96499.16;7397662;19;1044;-65
2024/03/15 06:49:44;;;;;;;;;;;;;;;9.21;64.77;96494.66;7397151;19;1131;-68
2024/03/15 06:54:54;;;;;;;;;;;;;;;9.52;64.54;96494.53;7397437;19;833;-70
2024/03/15 06:57:27;;;;;;;;;;;;;;;9.73;63.41;96495.53;7396853;19;1136;-71
2024/03/15 06:59:56;;;;;;;;;;;;;;;9.83;62.65;96502.16;7395774;19;1838;-72
2024/03/15 07:02:24;;;;;;;;;;;;;;;9.99;63.22;96504.19;7396718;19;998;-69
2024/03/15 07:04:53;;;;;;;;;;;;;;;10.05;63.06;96503.97;7396563;19;1252;-66
2024/03/15 07:07:22;;;;;;;;;;;;;;;10.22;62.95;96507.72;7396970;19;1035;-68
2024/03/15 07:09:50;;;;;;;;;;;;;;;10.13;62.96;96503.69;7396463;19;1025;-67
2024/03/15 07:12:19;;;;;;;;;;;;;;;10.10;63.54;96502.06;7396395;19;1076;-68
2024/03/15 07:14:50;;;;;;;;;;;;;;;10.26;63.35;96504.09;7396691;19;1010;-68
2024/03/15 07:17:18;;;;;;;;;;;;;;;10.59;64.28;96505.50;7396199;19;1123;-67
2024/03/15 07:19:47;;;;;;;;;;;;;;;11.07;61.95;96502.78;7395375;19;1842;-66
2024/03/15 07:22:15;;;;;;;;;;;;;;;11.61;59.44;96504.94;7395990;19;1283;-70
2024/03/15 07:24:44;;;;;;;;;;;;;;;11.98;56.28;96507.72;7394291;19;1024;-65
2024/03/15 07:27:12;;;;;;;;;;;;;;;12.52;56.38;96512.31;7396217;19;884;-68
2024/03/15 07:29:42;;;;;;;;;;;;;;;12.95;54.21;96516.50;7396544;19;1644;-67
2024/03/15 07:32:13;;;;;;;;;;;;;;;13.34;52.11;96512.81;7395693;19;1042;-65
2024/03/15 07:34:42;;;;;;;;;;;;;;;13.56;49.45;96509.16;7396070;19;1025;-69
2024/03/15 07:37:11;;;;;;;;;;;;;;;13.59;49.24;96505.53;7395670;19;1022;-67
2024/03/15 07:39:40;;;;;;;;;;;;;;;13.73;51.01;96499.56;7395154;19;1855;-69
2024/03/15 07:42:08;;;;;;;;;;;;;;;13.99;47.50;96499.97;7396015;19;953;-67
2024/03/15 07:44:37;;;;;;;;;;;;;;;14.07;48.79;96503.06;7395991;19;1062;-67
2024/03/15 07:47:06;;;;;;;;;;;;;;;14.15;47.34;96505.31;7395211;19;919;-65
2024/03/15 07:49:38;;;;;;;;;;;;;;;14.28;46.23;96498.47;7395145;19;1111;-69
2024/03/15 07:52:07;;;;;;;;;;;;;;;14.85;46.91;96503.34;7393553;19;953;-67
2024/03/15 07:54:36;;;;;;;;;;;;;;;15.13;46.48;96504.41;7395069;19;1032;-70
2024/03/15 07:57:04;;;;;;;;;;;;;;;15.04;46.74;96495.25;7395390;19;1017;-68
2024/03/15 07:59:33;;;;;;;;;;;;;;;15.12;47.12;96493.03;7395025;19;2250;-70
2024/03/15 08:02:03;;;;;;;;;;;;;;;15.25;46.80;96489.69;7395126;19;1888;-70
2024/03/15 08:04:34;;;;;;;;;;;;;;;15.56;45.32;96485.25;7394723;19;1045;-66
2024/03/15 08:07:05;;;;;;;;;;;;;;;15.76;43.51;96499.03;7394760;19;1218;-67
2024/03/15 08:09:34;;;;;;;;;;;;;;;15.59;45.97;96489.50;7394612;19;1095;-66
2024/03/15 08:12:03;;;;;;;;;;;;;;;15.74;44.89;96491.22;7392651;19;1224;-67
2024/03/15 08:14:35;;;;;;;;;;;;;;;15.12;46.58;96486.91;7394423;19;1405;-65
2024/03/15 08:17:04;;;;;;;;;;;;;;;14.68;47.35;96488.44;7394411;19;1033;-68
2024/03/15 08:19:32;;;;;;;;;;;;;;;14.71;46.77;96493.53;7394532;19;1855;-71
2024/03/15 08:22:01;;;;;;;;;;;;;;;14.61;44.58;96494.06;7394772;19;973;-67
2024/03/15 08:24:33;;;;;;;;;;;;;;;14.16;46.33;96480.69;7394644;19;1004;-69
2024/03/15 08:27:02;;;;;;;;;;;;;;;14.02;50.55;96478.78;7394586;19;1012;-69
2024/03/15 08:29:30;;;;;;;;;;;;;;;14.14;48.84;96487.81;7394026;19;1100;-70
2024/03/15 08:32:00;;;;;;;;;;;;;;;14.38;48.42;96484.78;7394044;19;1028;-67
2024/03/15 08:34:29;;;;;;;;;;;;;;;14.87;47.67;96485.69;7394971;19;1056;-70
2024/03/15 08:36:57;;;;;;;;;;;;;;;14.57;48.60;96489.88;7401470;19;998;-67
2024/03/15 08:39:29;;;;;;;;;;;;;;;14.03;48.23;96486.59;7401940;19;1017;-66
2024/03/15 08:42:01;;;;;;;;;;;;;;;13.75;49.70;96477.53;7401317;19;1009;-68
2024/03/15 08:44:31;;;;;;;;;;;;;;;13.72;53.34;96472.44;7401150;19;1248;-68
2024/03/15 08:47:00;;;;;;;;;;;;;;;13.69;52.80;96464.69;7401219;19;1119;-70
2024/03/15 08:49:29;;;;;;;;;;;;;;;13.82;52.66;96461.44;7401047;19;1928;-67
2024/03/15 08:51:57;;;;;;;;;;;;;;;13.95;51.16;96465.13;7401085;19;1119;-68
2024/03/15 08:54:26;;;;;;;;;;;;;;;14.08;52.73;96459.19;7401224;19;1799;-70
2024/03/15 08:56:56;;;;;;;;;;;;;;;13.98;54.68;96457.06;7400922;19;1045;-68
2024/03/15 08:59:28;;;;;;;;;;;;;;;14.00;52.96;96464.88;7401173;19;1372;-69
2024/03/15 09:01:57;;;;;;;;;;;;;;;13.78;52.85;96458.13;7397998;19;1845;-65
2024/03/15 09:04:25;;;;;;;;;;;;;;;13.86;54.96;96455.94;7400599;19;1013;-67
2024/03/15 09:06:55;;;;;;;;;;;;;;;13.93;53.69;96459.09;7400946;19;1005;-70
2024/03/15 09:09:31;;;;;;;;;;;;;;;14.01;53.25;96459.53;7400918;19;1190;-71
2024/03/15 09:12:01;;;;;;;;;;;;;;;14.33;52.16;96461.34;7397647;19;1110;-70
2024/03/15 09:14:35;;;;;;;;;;;;;;;14.47;51.56;96457.13;7400280;19;1064;-65
2024/03/15 09:17:11;;;;;;;;;;;;;;;14.53;53.75;96452.38;7400284;19;1088;-70
2024/03/15 09:19:40;;;;;;;;;;;;;;;14.52;51.09;96461.22;7400089;19;1105;-68
2024/03/15 09:22:12;;;;;;;;;;;;;;;14.37;51.47;96460.28;7397406;19;1853;-69
2024/03/15 09:24:40;;;;;;;;;;;;;;;14.40;51.98;96454.00;7400396;19;1018;-66
2024/03/15 09:27:09;;;;;;;;;;;;;;;14.22;52.74;96456.69;7400298;19;1687;-68
2024/03/15 09:29:43;;;;;;;;;;;;;;;14.26;49.73;96452.97;7400100;19;1859;-67
2024/03/15 09:32:12;;;;;;;;;;;;;;;14.35;51.25;96441.06;7399708;19;1120;-69
2024/03/15 09:34:43;;;;;;;;;;;;;;;14.55;55.40;96439.13;7399617;19;979;-66
2024/03/15 09:37:14;;;;;;;;;;;;;;;15.05;51.36;96436.34;7399618;19;1122;-70
2024/03/15 09:39:43;;;;;;;;;;;;;;;15.01;48.60;96437.47;7399455;19;1260;-70
2024/03/15 09:42:17;;;;;;;;;;;;;;;14.93;52.59;96435.28;7397496;19;1845;-70
2024/03/15 09:44:49;;;;;;;;;;;;;;;14.54;51.19;96437.41;7399284;19;1071;-65
2024/03/15 09:47:17;;;;;;;;;;;;;;;14.73;51.36;96437.25;7397330;19;1100;-69
2024/03/15 09:49:47;;;;;;;;;;;;;;;14.24;51.27;96435.56;7399149;19;965;-67
2024/03/15 09:52:15;;;;;;;;;;;;;;;14.15;51.06;96439.56;7396853;19;1959;-67
2024/03/15 09:54:44;;;;;;;;;;;;;;;13.78;50.21;96439.72;7399028;19;1996;-70
2024/03/15 09:57:16;;;;;;;;;;;;;;;13.45;51.27;96437.91;7398912;19;1052;-67
2024/03/15 09:59:45;;;;;;;;;;;;;;;13.39;52.84;96428.53;7398731;19;1029;-68
2024/03/15 10:02:25;;;;;;;;;;;;;;;13.46;53.79;96434.34;7396508;19;1850;-69
2024/03/15 10:04:54;;;;;;;;;;;;;;;13.39;53.23;96421.50;7398647;19;1033;-68
2024/03/15 10:07:24;;;;;;;;;;;;;;;13.29;51.84;96430.78;7398904;19;1035;-70
2024/03/15 10:09:54;;;;;;;;;;;;;;;13.00;52.79;96427.84;7398010;19;1041;-65
2024/03/15 10:12:23;;;;;;;;;;;;;;;12.99;53.30;96423.50;7398511;19;1135;-67
2024/03/15 10:14:52;;;;;;;;;;;;;;;12.79;53.33;96424.50;7398198;19;1006;-66
2024/03/15 10:17:23;;;;;;;;;;;;;;;12.35;54.20;96419.56;7398177;19;1033;-67
2024/03/15 10:19:51;;;;;;;;;;;;;;;12.40;56.92;96413.22;7398520;19;1088;-68
2024/03/15 10:22:20;;;;;;;;;;;;;;;12.53;55.92;96416.97;7396167;19;1846;-70
2024/03/15 10:24:48;;;;;;;;;;;;;;;12.78;54.82;96410.53;7398289;19;1812;-71
2024/03/15 10:27:18;;;;;;;;;;;;;;;12.77;54.05;96414.09;7398209;19;1897;-70
2024/03/15 10:29:47;;;;;;;;;;;;;;;12.83;53.93;96410.31;7398256;19;1063;-70
2024/03/15 10:32:16;;;;;;;;;;;;;;;12.64;54.30;96409.44;7398013;19;1833;-70
2024/03/15 10:34:48;;;;;;;;;;;;;;;12.55;55.90;96404.63;7397607;19;1006;-72
2024/03/15 10:37:17;;;;;;;;;;;;;;;12.52;56.66;96404.75;7397486;19;1016;-68
2024/03/15 10:39:45;;;;;;;;;;;;;;;12.53;54.18;96408.25;7397758;19;1842;-72
2024/03/15 10:42:16;;;;;;;;;;;;;;;12.50;54.00;96412.69;7395562;19;1842;-69
2024/03/15 10:44:45;;;;;;;;;;;;;;;12.31;54.63;96414.53;7397259;19;1005;-72
2024/03/15 10:47:15;;;;;;;;;;;;;;;12.28;55.14;96415.50;7397603;19;1974;-72
2024/03/15 10:49:44;;;;;;;;;;;;;;;12.13;55.83;96410.06;7397425;19;1969;-73
2024/03/15 10:52:16;;;;;;;;;;;;;;;11.90;55.49;96405.84;7397100;19;1072;-70
2024/03/15 10:54:45;;;;;;;;;;;;;;;11.78;55.67;96404.63;7397421;19;965;-70
2024/03/15 10:57:13;;;;;;;;;;;;;;;11.41;58.47;96399.22;7396846;19;1131;-71
2024/03/15 10:59:42;;;;;;;;;;;;;;;11.54;58.76;96407.44;7397236;19;1013;-69
2024/03/15 11:02:11;;;;;;;;;;;;;;;11.59;56.84;96396.75;7395215;19;1840;-67
2024/03/15 11:04:40;;;;;;;;;;;;;;;11.46;56.98;96401.66;7396968;19;1811;-72
2024/03/15 11:07:08;;;;;;;;;;;;;;;11.42;57.11;96394.84;7396939;19;1900;-70
2024/03/15 11:09:41;;;;;;;;;;;;;;;11.54;57.96;96391.72;7396862;19;1626;-67
2024/03/15 11:12:17;;;;;;;;;;;;;;;11.61;58.21;96389.66;7396333;19;993;-67
2024/03/15 11:14:45;;;;;;;;;;;;;;;11.84;58.65;96390.41;7396214;19;1022;-71
2024/03/15 11:17:19;;;;;;;;;;;;;;;11.92;57.56;96401.38;7396163;19;1164;-72
2024/03/15 11:19:48;;;;;;;;;;;;;;;11.83;57.01;96397.41;7396085;19;1017;-67
2024/03/15 11:22:19;;;;;;;;;;;;;;;11.95;57.50;96389.91;7395046;19;1849;-70
2024/03/15 11:24:50;;;;;;;;;;;;;;;11.87;58.07;96400.75;7396352;19;1000;-70
2024/03/15 11:27:19;;;;;;;;;;;;;;;11.98;57.42;96389.78;7395926;19;1161;-69
2024/03/15 11:29:49;;;;;;;;;;;;;;;12.08;58.26;96393.69;7396063;19;1910;-71
2024/03/15 11:32:18;;;;;;;;;;;;;;;12.19;57.46;96395.81;7396182;19;1018;-73
2024/03/15 11:34:46;;;;;;;;;;;;;;;12.13;57.10;96391.69;7396037;19;1082;-69
2024/03/15 11:37:15;;;;;;;;;;;;;;;12.22;57.82;96384.34;7395960;19;1921;-68
2024/03/15 11:39:44;;;;;;;;;;;;;;;12.24;56.88;96399.06;7395926;19;1005;-70
2024/03/15 11:42:15;;;;;;;;;;;;;;;12.14;55.43;96392.56;7394915;19;1849;-71
2024/03/15 11:44:45;;;;;;;;;;;;;;;12.05;57.01;96383.31;7395251;19;1102;-67
2024/03/15 11:47:14;;;;;;;;;;;;;;;12.09;56.70;96384.03;7395181;19;1056;-68
2024/03/15 11:49:43;;;;;;;;;;;;;;;12.25;58.10;96382.41;7395872;19;1853;-68
2024/03/15 11:52:12;;;;;;;;;;;;;;;12.13;60.20;96382.97;7395440;19;1888;-70
2024/03/15 11:54:41;;;;;;;;;;;;;;;12.27;60.52;96384.94;7395711;19;1628;-69
2024/03/15 11:57:09;;;;;;;;;;;;;;;12.40;59.36;96384.38;7395397;19;1049;-68
2024/03/15 11:59:41;;;;;;;;;;;;;;;12.38;59.92;96384.44;7395263;19;1916;-69
2024/03/15 12:02:13;;;;;;;;;;;;;;;12.13;60.25;96377.72;7394116;19;1839;-73
2024/03/15 12:04:42;;;;;;;;;;;;;;;11.99;61.99;96381.84;7395024;19;1047;-67
2024/03/15 12:07:11;;;;;;;;;;;;;;;11.74;62.36;96376.88;7394606;19;1176;-66
2024/03/15 12:09:42;;;;;;;;;;;;;;;11.57;65.56;96382.84;7393260;19;1069;-70
2024/03/15 12:12:10;;;;;;;;;;;;;;;11.44;68.11;96379.94;7394490;19;1061;-68
2024/03/15 12:14:45;;;;;;;;;;;;;;;11.26;68.15;96385.06;7394515;19;1144;-69
2024/03/15 12:17:16;;;;;;;;;;;;;;;11.29;68.93;96384.06;7394305;19;1057;-70
2024/03/15 12:19:44;;;;;;;;;;;;;;;11.38;68.55;96391.53;7394763;19;992;-67
2024/03/15 12:22:13;;;;;;;;;;;;;;;11.56;68.70;96389.03;7393072;19;1841;-72
2024/03/15 12:24:41;;;;;;;;;;;;;;;11.68;67.70;96385.84;7394095;19;1081;-68
2024/03/15 12:27:13;;;;;;;;;;;;;;;11.83;67.66;96393.94;7394555;19;1052;-69
2024/03/15 12:29:44;;;;;;;;;;;;;;;11.94;69.08;96388.19;7394541;19;1028;-68
2024/03/15 12:32:13;;;;;;;;;;;;;;;11.98;67.30;96393.22;7393913;19;1107;-68
2024/03/15 12:34:41;;;;;;;;;;;;;;;12.03;66.48;96386.91;7394395;19;969;-68
2024/03/15 12:37:12;;;;;;;;;;;;;;;11.96;66.08;96395.09;7394303;19;1906;-68
2024/03/15 12:39:40;;;;;;;;;;;;;;;11.74;60.45;96403.06;7393822;19;1065;-67
2024/03/15 12:42:11;;;;;;;;;;;;;;;11.62;62.44;96400.06;7393091;19;1835;-68
2024/03/15 12:44:39;;;;;;;;;;;;;;;11.75;64.01;96405.59;7393645;19;1089;-68
2024/03/15 12:47:11;;;;;;;;;;;;;;;11.87;64.26;96404.19;7393685;19;1033;-69
2024/03/15 12:49:39;;;;;;;;;;;;;;;11.96;66.73;96400.31;7393565;19;1046;-69
2024/03/15 12:52:12;;;;;;;;;;;;;;;11.98;65.66;96410.75;7393465;19;1037;-67
2024/03/15 12:54:41;;;;;;;;;;;;;;;11.95;65.68;96397.78;7393428;19;1191;-65
2024/03/15 12:57:11;;;;;;;;;;;;;;;11.96;67.09;96410.81;7393394;19;1073;-66
2024/03/15 12:59:40;;;;;;;;;;;;;;;11.95;66.97;96416.13;7393806;19;958;-68
2024/03/15 13:02:11;;;;;;;;;;;;;;;11.93;66.98;96425.81;7392158;19;1857;-65
2024/03/15 13:04:40;;;;;;;;;;;;;;;11.81;65.86;96421.97;7393125;19;1144;-69
2024/03/15 13:07:08;;;;;;;;;;;;;;;11.71;66.07;96421.56;7393492;19;1036;-68
2024/03/15 13:09:37;;;;;;;;;;;;;;;11.63;66.50;96430.56;7393272;19;1913;-65
2024/03/15 13:12:06;;;;;;;;;;;;;;;10.99;62.49;96446.34;7391013;19;2014;-65
2024/03/15 13:14:34;;;;;;;;;;;;;;;10.43;63.02;96445.06;7392940;19;1146;-68
2024/03/15 13:17:03;;;;;;;;;;;;;;;10.04;66.66;96441.31;7392918;19;1049;-66